Time;durP1;ratioP1;P1;durP2;ratioP2;P2;SDS_P1;SDS_P2;PMS_P1;PMS_P2;Temp;Humidity;BMP_temperature;BMP_pressure;BME280_temperature;BME280_humidity;BME280_pressure;Samples;Min_cycle;Max_cycle;Signal;HPM_P1;HPM_P2
2023/04/19 04:02:53;;;;;;;5.67;5.17;;;12.10;79.50;;;;;;5033358;23;20501;-76
2023/04/19 04:05:20;;;;;;;5.73;5.23;;;12.20;79.10;;;;;;4995093;28;20540;-76
2023/04/19 04:07:46;;;;;;;6.90;6.30;;;12.20;78.90;;;;;;4994864;28;20492;-76
2023/04/19 04:10:13;;;;;;;4.93;4.43;;;12.20;78.90;;;;;;4994761;28;20457;-77
2023/04/19 04:12:40;;;;;;;6.30;5.57;;;12.20;79.00;;;;;;4994614;28;20500;-77
2023/04/19 04:15:07;;;;;;;5.93;5.43;;;12.20;78.90;;;;;;4995700;28;20503;-77
2023/04/19 04:17:34;;;;;;;5.30;4.90;;;12.20;78.70;;;;;;4994910;28;20499;-76
2023/04/19 04:20:04;;;;;;;6.60;6.00;;;12.10;79.00;;;;;;4994622;28;20445;-77
2023/04/19 04:22:31;;;;;;;5.93;5.37;;;12.20;79.00;;;;;;4994620;28;20504;-77
2023/04/19 04:25:00;;;;;;;6.00;5.40;;;12.10;79.10;;;;;;4994448;28;20512;-78
2023/04/19 04:27:26;;;;;;;7.47;6.77;;;12.10;79.10;;;;;;4994061;28;20841;-77
2023/04/19 04:29:53;;;;;;;6.47;5.97;;;12.10;79.00;;;;;;4994474;28;20449;-77
2023/04/19 04:32:21;;;;;;;6.53;6.00;;;12.10;79.10;;;;;;4994444;28;20464;-77
2023/04/19 04:34:48;;;;;;;6.60;5.93;;;12.10;79.10;;;;;;4994258;28;20464;-77
2023/04/19 04:37:16;;;;;;;6.47;5.90;;;12.10;79.10;;;;;;4994326;28;20997;-74
2023/04/19 04:39:43;;;;;;;5.73;5.20;;;12.10;79.00;;;;;;4994330;28;20448;-75
2023/04/19 04:42:11;;;;;;;6.73;6.13;;;12.10;79.10;;;;;;4993985;28;20563;-77
2023/04/19 04:44:38;;;;;;;6.20;5.70;;;12.10;78.80;;;;;;4994236;28;20449;-77
2023/04/19 04:47:04;;;;;;;6.67;6.07;;;11.90;79.30;;;;;;4994156;28;20556;-77
2023/04/19 04:49:31;;;;;;;5.63;5.13;;;11.70;80.40;;;;;;4993813;28;21001;-76
2023/04/19 04:51:58;;;;;;;6.43;5.83;;;11.60;81.30;;;;;;4993871;28;21057;-76
2023/04/19 04:54:26;;;;;;;6.40;5.80;;;11.60;81.00;;;;;;4994082;28;20536;-77
2023/04/19 04:56:52;;;;;;;5.33;4.83;;;11.70;80.60;;;;;;4994147;28;20936;-77
2023/04/19 04:59:19;;;;;;;6.77;6.27;;;11.70;80.20;;;;;;4994135;28;20853;-76
2023/04/19 05:01:46;;;;;;;6.17;5.67;;;11.70;80.20;;;;;;4993764;28;20494;-77
2023/04/19 05:04:12;;;;;;;7.37;6.67;;;11.70;79.90;;;;;;4993773;28;21028;-77
2023/04/19 05:06:40;;;;;;;6.50;5.90;;;11.80;80.10;;;;;;4994568;28;20454;-77
2023/04/19 05:09:07;;;;;;;7.07;6.23;;;11.90;80.00;;;;;;4994110;28;20460;-78
2023/04/19 05:11:35;;;;;;;6.60;5.40;;;11.80;79.80;;;;;;4993921;28;20469;-77
2023/04/19 05:14:02;;;;;;;5.33;4.80;;;11.70;80.30;;;;;;4993979;28;20449;-78
2023/04/19 05:16:28;;;;;;;6.50;5.90;;;11.70;80.30;;;;;;4994008;28;20457;-77
2023/04/19 05:18:55;;;;;;;6.13;5.63;;;11.70;80.30;;;;;;4994094;28;20508;-78
2023/04/19 05:21:22;;;;;;;7.60;7.00;;;11.50;80.40;;;;;;4994003;28;20492;-77
2023/04/19 05:23:52;;;;;;;6.20;5.70;;;11.40;81.10;;;;;;4995275;28;20453;-78
2023/04/19 05:26:18;;;;;;;6.50;5.83;;;11.40;80.90;;;;;;4994455;28;20548;-77
2023/04/19 05:28:46;;;;;;;7.70;7.00;;;11.30;81.00;;;;;;4994554;28;20449;-75
2023/04/19 05:31:13;;;;;;;6.17;5.60;;;11.10;81.50;;;;;;4993689;28;20525;-75
2023/04/19 05:33:40;;;;;;;7.20;6.60;;;10.90;82.10;;;;;;4993655;28;20445;-74
2023/04/19 05:36:07;;;;;;;6.33;5.80;;;10.80;82.40;;;;;;4993795;28;20453;-76
2023/04/19 05:38:34;;;;;;;6.97;6.37;;;10.80;82.90;;;;;;4993694;28;20461;-75
2023/04/19 05:41:01;;;;;;;6.33;5.73;;;10.80;82.60;;;;;;4993640;28;20474;-76
2023/04/19 05:43:28;;;;;;;6.63;6.03;;;11.00;82.20;;;;;;4993749;28;20449;-75
2023/04/19 05:45:56;;;;;;;7.43;6.77;;;11.00;81.80;;;;;;4993673;28;20452;-76
2023/04/19 05:48:24;;;;;;;6.97;6.37;;;11.00;81.90;;;;;;4994073;28;20445;-76
2023/04/19 05:50:53;;;;;;;6.60;6.00;;;11.10;81.60;;;;;;4993706;28;20479;-76
2023/04/19 05:53:19;;;;;;;7.53;6.90;;;10.90;81.90;;;;;;4993518;28;20484;-76
2023/04/19 05:55:46;;;;;;;6.03;5.53;;;10.90;82.20;;;;;;4993187;28;20797;-76
2023/04/19 05:58:13;;;;;;;6.90;6.30;;;11.00;82.20;;;;;;4992900;28;20961;-76
2023/04/19 06:00:40;;;;;;;6.97;6.30;;;11.00;82.00;;;;;;4993557;28;20469;-77
2023/04/19 06:03:08;;;;;;;6.73;6.23;;;11.00;82.10;;;;;;4995946;28;20469;-77
2023/04/19 06:05:35;;;;;;;7.20;6.60;;;10.90;82.10;;;;;;4997584;28;20504;-78
2023/04/19 06:08:02;;;;;;;7.33;6.10;;;11.00;81.90;;;;;;4997085;28;20448;-77
2023/04/19 06:10:28;;;;;;;6.63;6.10;;;11.00;81.90;;;;;;4997088;28;20453;-78
2023/04/19 06:12:55;;;;;;;6.60;6.00;;;11.10;81.50;;;;;;4997669;28;20857;-78
2023/04/19 06:15:22;;;;;;;7.27;6.20;;;11.10;81.40;;;;;;4996774;28;20945;-77
2023/04/19 06:17:48;;;;;;;6.73;6.13;;;11.10;81.10;;;;;;4997010;28;20453;-77
2023/04/19 06:20:16;;;;;;;6.00;5.50;;;11.00;81.20;;;;;;5001735;28;20512;-77
2023/04/19 06:22:45;;;;;;;6.50;6.00;;;11.00;81.70;;;;;;5004315;28;20485;-78
2023/04/19 06:25:12;;;;;;;7.00;6.40;;;11.20;81.40;;;;;;5000539;28;20458;-77
2023/04/19 06:27:39;;;;;;;6.33;5.83;;;11.10;81.30;;;;;;4999901;28;20503;-78
2023/04/19 06:30:07;;;;;;;6.73;6.13;;;11.20;81.10;;;;;;4999034;28;20453;-78
2023/04/19 06:32:33;;;;;;;5.97;5.47;;;11.10;80.90;;;;;;4997930;28;20549;-77
2023/04/19 06:35:00;;;;;;;6.67;6.00;;;11.40;80.80;;;;;;4996599;28;20997;-78
2023/04/19 06:37:28;;;;;;;6.23;5.67;;;11.20;80.80;;;;;;4997117;28;20456;-78
2023/04/19 06:39:55;;;;;;;6.03;5.53;;;11.20;81.20;;;;;;4996688;28;20453;-78
2023/04/19 06:42:24;;;;;;;6.33;5.83;;;11.30;81.10;;;;;;4999296;28;20563;-78
2023/04/19 06:44:50;;;;;;;7.60;7.00;;;11.30;80.70;;;;;;5001667;28;20450;-78
2023/04/19 06:47:17;;;;;;;6.00;5.50;;;11.30;80.60;;;;;;4999581;28;20500;-78
2023/04/19 06:49:44;;;;;;;6.53;5.97;;;11.30;80.80;;;;;;4996536;28;20445;-75
2023/04/19 06:52:11;;;;;;;8.33;6.10;;;11.50;80.50;;;;;;4996745;28;20559;-76
2023/04/19 06:54:39;;;;;;;6.33;5.83;;;11.60;80.20;;;;;;4996175;28;20481;-77
2023/04/19 06:57:05;;;;;;;6.10;5.50;;;11.60;79.90;;;;;;4996125;28;20540;-77
2023/04/19 06:59:32;;;;;;;6.30;5.70;;;11.70;79.40;;;;;;4996157;28;20457;-76
2023/04/19 07:01:59;;;;;;;7.43;6.80;;;11.50;79.70;;;;;;4995826;28;20496;-77
2023/04/19 07:04:26;;;;;;;6.40;5.83;;;11.40;80.20;;;;;;4995901;28;20453;-77
2023/04/19 07:06:53;;;;;;;6.60;6.00;;;11.30;80.20;;;;;;4995941;28;20822;-76
2023/04/19 07:09:20;;;;;;;6.57;6.03;;;11.20;80.50;;;;;;4996137;28;20493;-77
2023/04/19 07:11:50;;;;;;;7.50;5.33;;;11.30;80.30;;;;;;4995862;28;20461;-76
2023/04/19 07:14:18;;;;;;;5.70;5.20;;;11.40;80.40;;;;;;4994958;28;20464;-77
2023/04/19 07:16:44;;;;;;;5.73;5.23;;;11.50;79.90;;;;;;4995941;28;20453;-78
2023/04/19 07:19:11;;;;;;;5.47;4.97;;;11.50;79.70;;;;;;4995480;28;20942;-77
2023/04/19 07:21:38;;;;;;;5.77;5.27;;;11.50;79.40;;;;;;4995330;28;20485;-77
2023/04/19 07:24:06;;;;;;;7.23;6.07;;;11.40;79.60;;;;;;4995685;28;20456;-78
2023/04/19 07:26:33;;;;;;;6.13;5.60;;;11.40;79.70;;;;;;4995587;28;20541;-78
2023/04/19 07:29:01;;;;;;;5.53;5.03;;;11.60;79.50;;;;;;4996456;28;20453;-77
2023/04/19 07:31:28;;;;;;;7.70;7.00;;;11.60;79.20;;;;;;4995610;28;20496;-77
2023/04/19 07:33:55;;;;;;;7.17;6.50;;;11.60;79.40;;;;;;4995774;28;20453;-78
2023/04/19 07:36:21;;;;;;;6.40;5.90;;;11.70;79.40;;;;;;4995306;28;20459;-78
2023/04/19 07:38:48;;;;;;;5.67;5.13;;;12.00;79.00;;;;;;4995320;28;20457;-78
2023/04/19 07:41:15;;;;;;;6.13;5.53;;;12.10;78.50;;;;;;4995310;28;20465;-77
2023/04/19 07:43:41;;;;;;;5.90;5.40;;;12.30;77.50;;;;;;4994918;28;21014;-78
2023/04/19 07:46:14;;;;;;;6.10;5.60;;;12.30;77.40;;;;;;4995488;28;20801;-77
2023/04/19 07:48:41;;;;;;;6.40;5.87;;;12.40;77.30;;;;;;4995510;28;20434;-78
2023/04/19 07:51:10;;;;;;;5.90;5.40;;;12.40;76.60;;;;;;4996171;28;20469;-77
2023/04/19 07:53:37;;;;;;;6.90;6.00;;;12.20;76.80;;;;;;4996238;28;20528;-77
2023/04/19 07:56:04;;;;;;;5.60;5.10;;;12.00;77.90;;;;;;5000339;28;20450;-77
2023/04/19 07:58:31;;;;;;;6.00;5.50;;;12.10;77.90;;;;;;4998992;28;20484;-77
2023/04/19 08:00:58;;;;;;;5.43;4.93;;;12.10;78.70;;;;;;4995019;28;20489;-77
2023/04/19 08:03:26;;;;;;;5.50;4.97;;;12.20;77.90;;;;;;4994967;28;20473;-76
2023/04/19 08:05:52;;;;;;;5.90;5.40;;;12.50;77.40;;;;;;4994537;28;20460;-77
2023/04/19 08:08:19;;;;;;;6.13;5.63;;;12.60;76.70;;;;;;4994963;28;20503;-77
2023/04/19 08:10:46;;;;;;;5.17;4.67;;;12.60;77.00;;;;;;4994757;28;20473;-76
2023/04/19 08:13:12;;;;;;;5.87;5.37;;;12.70;76.80;;;;;;4994675;28;20446;-77
2023/04/19 08:15:39;;;;;;;5.67;5.17;;;12.70;76.60;;;;;;4994660;28;20504;-76
2023/04/19 08:18:06;;;;;;;5.60;5.10;;;13.10;75.40;;;;;;4994589;28;20449;-76
2023/04/19 08:20:35;;;;;;;5.97;5.40;;;13.50;75.10;;;;;;4994451;28;20457;-77
2023/04/19 08:23:06;;;;;;;4.70;4.30;;;13.80;73.80;;;;;;4994512;28;20535;-76
2023/04/19 08:25:32;;;;;;;5.63;5.13;;;14.00;72.50;;;;;;4994219;28;20922;-77
2023/04/19 08:27:59;;;;;;;4.63;4.23;;;14.10;72.40;;;;;;4994427;28;20458;-77
2023/04/19 08:30:26;;;;;;;5.60;5.20;;;13.90;72.00;;;;;;4994388;28;20503;-76
2023/04/19 08:32:53;;;;;;;6.00;5.40;;;13.60;72.40;;;;;;4994418;28;20954;-76
2023/04/19 08:35:20;;;;;;;5.53;5.13;;;13.20;74.20;;;;;;4994091;28;20997;-76
2023/04/19 08:37:48;;;;;;;5.27;4.77;;;12.90;74.60;;;;;;4994723;28;20457;-76
2023/04/19 08:40:18;;;;;;;5.40;4.97;;;12.40;76.30;;;;;;4994344;28;20455;-76
2023/04/19 08:42:45;;;;;;;5.87;5.37;;;12.30;78.00;;;;;;4995122;28;20484;-76
2023/04/19 08:45:14;;;;;;;5.47;5.00;;;12.40;77.60;;;;;;4994453;28;20442;-76
2023/04/19 08:47:41;;;;;;;5.13;4.70;;;12.60;76.60;;;;;;4994431;28;20449;-75
2023/04/19 08:50:08;;;;;;;4.33;3.93;;;12.80;76.20;;;;;;4994514;28;20815;-76
2023/04/19 08:52:37;;;;;;;5.43;4.93;;;12.90;75.60;;;;;;4994412;28;20465;-76
2023/04/19 08:55:07;;;;;;;6.37;5.20;;;13.20;74.60;;;;;;4993858;28;20476;-76
2023/04/19 08:57:34;;;;;;;5.23;4.80;;;13.10;74.00;;;;;;4993849;28;20987;-76
2023/04/19 09:00:05;;;;;;;5.43;4.70;;;13.00;74.40;;;;;;4994337;28;20476;-76
2023/04/19 09:02:44;;;;;;;5.20;4.70;;;13.00;74.30;;;;;;4994375;28;20963;-76
2023/04/19 09:05:13;;;;;;;4.87;4.47;;;13.00;74.20;;;;;;4994064;28;20488;-76
2023/04/19 09:07:39;;;;;;;4.60;4.20;;;13.20;73.60;;;;;;4993987;28;20457;-75
2023/04/19 09:10:09;;;;;;;4.70;4.17;;;13.40;74.10;;;;;;4993912;28;20457;-76
2023/04/19 09:12:37;;;;;;;4.87;4.37;;;13.50;72.80;;;;;;4993934;28;20473;-76
2023/04/19 09:15:07;;;;;;;4.47;4.07;;;13.60;70.90;;;;;;4993907;28;20454;-75
2023/04/19 09:17:34;;;;;;;4.80;4.40;;;13.70;71.20;;;;;;4994048;28;20442;-76
2023/04/19 09:20:02;;;;;;;4.60;3.87;;;13.50;71.70;;;;;;4994057;28;20507;-76
2023/04/19 09:22:29;;;;;;;4.63;4.23;;;13.40;72.40;;;;;;4994106;28;20485;-76
2023/04/19 09:24:55;;;;;;;5.13;4.20;;;13.20;72.50;;;;;;4993886;28;20445;-77
2023/04/19 09:27:28;;;;;;;4.07;3.73;;;13.20;73.60;;;;;;4993705;28;20511;-75
2023/04/19 09:29:55;;;;;;;4.43;4.03;;;13.20;73.10;;;;;;4993755;28;20476;-76
2023/04/19 09:32:22;;;;;;;4.30;3.83;;;13.30;72.10;;;;;;4993752;28;20465;-75
2023/04/19 09:34:53;;;;;;;4.47;4.03;;;13.50;72.40;;;;;;4993681;28;20476;-76
2023/04/19 09:37:20;;;;;;;4.53;4.13;;;13.60;71.20;;;;;;4994956;28;20477;-75
2023/04/19 09:39:47;;;;;;;4.07;3.67;;;13.60;70.90;;;;;;4997621;28;20528;-76
2023/04/19 09:42:13;;;;;;;3.97;3.60;;;13.50;72.20;;;;;;4997390;28;20503;-76
2023/04/19 09:44:43;;;;;;;5.73;3.83;;;13.40;72.40;;;;;;4997237;28;20930;-75
2023/04/19 09:47:22;;;;;;;4.73;4.20;;;13.60;72.60;;;;;;4997389;28;20469;-76
2023/04/19 09:50:04;;;;;;;4.80;4.40;;;13.80;71.70;;;;;;4997530;28;20520;-76
2023/04/19 09:52:32;;;;;;;4.40;4.00;;;14.00;70.50;;;;;;4997093;28;20912;-76
2023/04/19 09:55:01;;;;;;;4.67;4.27;;;14.10;71.00;;;;;;4997266;28;20453;-77
2023/04/19 09:57:28;;;;;;;3.93;3.53;;;14.20;69.80;;;;;;4997402;28;20445;-75
2023/04/19 09:59:56;;;;;;;3.80;3.30;;;14.20;70.00;;;;;;4997129;28;20445;-76
2023/04/19 10:02:25;;;;;;;4.17;3.70;;;14.10;69.60;;;;;;4996671;28;20477;-76
2023/04/19 10:04:53;;;;;;;3.87;3.40;;;14.40;70.20;;;;;;4997199;28;20449;-76
2023/04/19 10:07:20;;;;;;;4.33;3.80;;;14.80;68.20;;;;;;4997334;28;20445;-75
2023/04/19 10:09:49;;;;;;;4.83;4.40;;;15.00;68.30;;;;;;4997079;28;20449;-76
2023/04/19 10:12:16;;;;;;;4.50;4.10;;;14.90;68.20;;;;;;4996881;28;20556;-76
2023/04/19 10:14:44;;;;;;;5.00;4.60;;;15.30;68.10;;;;;;5019988;23;20492;-76
2023/04/19 10:17:12;;;;;;;4.50;4.10;;;15.60;69.40;;;;;;4996951;28;20441;-76
2023/04/19 10:19:40;;;;;;;5.63;4.50;;;15.90;67.40;;;;;;4996799;28;20449;-76
2023/04/19 10:22:09;;;;;;;4.63;4.23;;;15.90;65.60;;;;;;4996830;28;20503;-76
2023/04/19 10:24:36;;;;;;;4.60;4.20;;;16.00;66.50;;;;;;4996745;28;20544;-76
2023/04/19 10:27:10;;;;;;;4.07;3.70;;;16.20;65.00;;;;;;4996851;28;20454;-76
2023/04/19 10:29:58;;;;;;;4.00;3.60;;;16.00;64.60;;;;;;4996661;28;20433;-76
2023/04/19 10:32:28;;;;;;;4.00;3.53;;;15.80;66.10;;;;;;4996922;28;20520;-76
2023/04/19 10:35:00;;;;;;;3.80;3.47;;;15.70;65.80;;;;;;4996591;28;20811;-76
2023/04/19 10:37:27;;;;;;;3.80;3.47;;;15.70;64.80;;;;;;4996561;28;20504;-76
2023/04/19 10:39:54;;;;;;;4.50;3.90;;;15.60;64.20;;;;;;4996501;28;20445;-78
2023/04/19 10:42:20;;;;;;;4.40;3.73;;;15.10;66.40;;;;;;4996654;28;20825;-76
2023/04/19 10:45:26;;;;;;;4.20;3.80;;;15.10;66.90;;;;;;4996379;28;20876;-76
2023/04/19 10:47:54;;;;;;;4.63;3.57;;;15.20;67.90;;;;;;4984986;28;20453;-76
2023/04/19 10:50:23;;;;;;;4.13;3.73;;;15.40;66.90;;;;;;4996252;28;20500;-76
2023/04/19 10:52:50;;;;;;;3.73;3.43;;;15.20;66.70;;;;;;4996222;28;20438;-76
2023/04/19 10:55:19;;;;;;;4.43;4.03;;;15.40;66.00;;;;;;4996105;28;20469;-76
2023/04/19 10:58:02;;;;;;;4.57;3.73;;;15.50;66.40;;;;;;4996046;28;20866;-76
2023/04/19 11:00:31;;;;;;;3.93;3.53;;;15.70;66.00;;;;;;4996093;28;20894;-76
2023/04/19 11:02:59;;;;;;;4.23;3.83;;;15.80;66.00;;;;;;4996019;28;21006;-76
2023/04/19 11:05:26;;;;;;;4.83;4.23;;;15.90;65.30;;;;;;4996214;28;20473;-76
2023/04/19 11:07:53;;;;;;;4.87;4.13;;;15.30;66.30;;;;;;4995724;28;20942;-76
2023/04/19 11:10:29;;;;;;;3.77;3.47;;;15.00;67.10;;;;;;4995917;28;20445;-77
2023/04/19 11:12:56;;;;;;;4.43;4.03;;;15.20;67.70;;;;;;4995937;28;20426;-76
2023/04/19 11:15:23;;;;;;;5.40;3.90;;;15.20;67.30;;;;;;4995489;28;20485;-76
2023/04/19 11:17:51;;;;;;;3.20;2.90;;;15.10;67.40;;;;;;4995733;28;20450;-76
2023/04/19 11:20:23;;;;;;;4.53;3.30;;;14.90;67.90;;;;;;4995435;28;21039;-75
2023/04/19 11:22:50;;;;;;;4.10;3.70;;;14.80;68.60;;;;;;4995608;28;20441;-75
2023/04/19 11:25:18;;;;;;;4.27;3.80;;;14.50;69.10;;;;;;4995727;28;20470;-76
2023/04/19 11:27:47;;;;;;;4.80;4.40;;;14.40;70.10;;;;;;4995496;28;20954;-75
2023/04/19 11:30:15;;;;;;;4.80;4.40;;;14.30;69.70;;;;;;4995708;28;20453;-76
2023/04/19 11:32:47;;;;;;;4.50;4.10;;;14.10;70.60;;;;;;4995639;28;20445;-76
2023/04/19 11:35:15;;;;;;;4.27;3.87;;;14.10;70.80;;;;;;4995519;28;20564;-76
2023/04/19 11:37:43;;;;;;;4.20;3.80;;;14.10;70.50;;;;;;4996421;28;20449;-75
2023/04/19 11:40:14;;;;;;;4.13;3.73;;;14.00;71.20;;;;;;4995453;28;20445;-76
2023/04/19 11:42:40;;;;;;;4.30;3.90;;;14.10;71.00;;;;;;4995361;28;20425;-76
2023/04/19 11:45:09;;;;;;;5.60;4.70;;;14.20;70.80;;;;;;4995221;28;20504;-76
2023/04/19 11:47:46;;;;;;;4.70;4.30;;;14.20;70.20;;;;;;4995243;28;20553;-76
2023/04/19 11:50:36;;;;;;;4.83;4.40;;;14.20;70.80;;;;;;4995166;28;20437;-76
2023/04/19 11:53:15;;;;;;;4.90;3.90;;;14.10;70.80;;;;;;4995175;28;20434;-75
2023/04/19 11:55:46;;;;;;;4.20;3.80;;;14.00;71.10;;;;;;4995036;28;20552;-76
2023/04/19 11:58:28;;;;;;;4.37;3.97;;;13.90;71.70;;;;;;4995022;28;20873;-76
2023/04/19 12:00:54;;;;;;;4.73;4.33;;;14.00;72.00;;;;;;4994431;28;20458;-76
2023/04/19 12:03:22;;;;;;;4.37;3.97;;;13.80;72.00;;;;;;4994889;28;20484;-76
2023/04/19 12:05:53;;;;;;;4.37;3.97;;;13.50;72.90;;;;;;4994892;28;20519;-76
2023/04/19 12:08:31;;;;;;;4.70;4.30;;;13.40;73.70;;;;;;4994908;28;20449;-76
2023/04/19 12:10:58;;;;;;;4.20;3.80;;;13.40;73.80;;;;;;4994733;28;20516;-76
2023/04/19 12:13:26;;;;;;;4.80;4.10;;;13.20;74.40;;;;;;4994717;28;20449;-75
2023/04/19 12:15:52;;;;;;;4.60;4.20;;;13.10;74.70;;;;;;4994451;28;20477;-75
2023/04/19 12:18:19;;;;;;;6.07;5.57;;;12.90;75.90;;;;;;4994619;28;20504;-75
2023/04/19 12:20:47;;;;;;;6.03;4.97;;;12.70;76.70;;;;;;4994512;28;20460;-75
2023/04/19 12:23:14;;;;;;;5.40;4.90;;;12.70;76.80;;;;;;4994615;28;20485;-75
2023/04/19 12:25:43;;;;;;;5.33;4.83;;;12.60;77.40;;;;;;4994438;28;20478;-76
2023/04/19 12:28:10;;;;;;;5.90;5.40;;;12.40;78.30;;;;;;4994629;28;20818;-76
2023/04/19 12:30:37;;;;;;;5.47;4.97;;;12.20;79.50;;;;;;4994149;28;20512;-75
2023/04/19 12:33:04;;;;;;;6.07;5.53;;;12.40;79.70;;;;;;4994423;28;20484;-75
2023/04/19 12:35:30;;;;;;;5.70;5.20;;;12.30;79.80;;;;;;4994026;28;20982;-75
2023/04/19 12:37:59;;;;;;;6.20;5.60;;;12.20;80.60;;;;;;4994076;28;20993;-75
2023/04/19 12:40:27;;;;;;;6.13;5.63;;;12.30;81.00;;;;;;4994235;28;20500;-76
2023/04/19 12:42:55;;;;;;;6.67;6.07;;;12.40;81.20;;;;;;4994218;28;20508;-75
2023/04/19 12:45:21;;;;;;;7.10;6.50;;;12.50;81.60;;;;;;4993979;28;21065;-76
2023/04/19 12:47:48;;;;;;;6.83;6.23;;;12.40;82.00;;;;;;4994181;28;20449;-77
2023/04/19 12:50:16;;;;;;;6.10;5.50;;;12.40;82.50;;;;;;4994214;28;20511;-76
2023/04/19 12:52:44;;;;;;;8.07;6.73;;;12.30;82.70;;;;;;4994246;28;20457;-76
2023/04/19 12:55:11;;;;;;;6.30;5.70;;;12.20;83.20;;;;;;4993576;28;20971;-76
2023/04/19 12:57:37;;;;;;;6.80;6.20;;;12.20;83.50;;;;;;4993655;28;20935;-76
2023/04/19 13:00:08;;;;;;;8.03;7.33;;;12.00;84.20;;;;;;4994085;28;20470;-76
2023/04/19 13:02:35;;;;;;;7.73;7.00;;;11.90;84.50;;;;;;4994021;28;20425;-76
2023/04/19 13:05:03;;;;;;;7.30;6.63;;;11.90;84.80;;;;;;4993739;28;20493;-76
2023/04/19 13:07:30;;;;;;;7.00;6.40;;;11.90;84.60;;;;;;4993976;28;20453;-76
2023/04/19 13:09:57;;;;;;;6.93;6.33;;;11.90;84.50;;;;;;4993818;28;20459;-75
2023/04/19 13:12:23;;;;;;;8.07;7.40;;;11.80;84.30;;;;;;4995355;28;20499;-75
2023/04/19 13:14:51;;;;;;;7.83;7.17;;;11.80;84.50;;;;;;4997745;28;20908;-76
2023/04/19 13:17:19;;;;;;;8.67;7.83;;;11.90;84.60;;;;;;4997935;28;20457;-76
2023/04/19 13:19:46;;;;;;;9.60;7.13;;;11.90;84.40;;;;;;4997882;28;20476;-76
2023/04/19 13:22:12;;;;;;;8.50;7.73;;;11.90;84.60;;;;;;4997821;28;20492;-75
2023/04/19 13:24:39;;;;;;;7.53;6.83;;;11.90;84.40;;;;;;4997653;28;20484;-76
2023/04/19 13:27:06;;;;;;;8.73;7.93;;;12.00;83.90;;;;;;4997724;28;20480;-75
2023/04/19 13:29:32;;;;;;;9.03;8.13;;;12.00;83.80;;;;;;4997694;28;20500;-75
2023/04/19 13:31:59;;;;;;;8.23;7.43;;;12.00;84.20;;;;;;4997631;28;20488;-75
2023/04/19 13:34:27;;;;;;;8.43;7.63;;;12.00;84.20;;;;;;4997311;28;20978;-75
2023/04/19 13:36:56;;;;;;;8.10;7.30;;;11.90;84.30;;;;;;4997237;28;20880;-75
2023/04/19 13:39:23;;;;;;;7.43;6.83;;;11.70;84.10;;;;;;4997490;28;20464;-75
2023/04/19 13:41:49;;;;;;;6.83;6.20;;;11.60;84.00;;;;;;4997506;28;20508;-75
2023/04/19 13:44:16;;;;;;;8.40;7.67;;;11.30;85.00;;;;;;4997258;28;20525;-75
2023/04/19 13:46:42;;;;;;;7.50;6.80;;;11.30;85.10;;;;;;4997074;28;20871;-75
2023/04/19 13:49:09;;;;;;;7.37;6.67;;;11.20;85.80;;;;;;4998544;28;20461;-77
2023/04/19 13:51:37;;;;;;;6.80;5.93;;;11.30;85.50;;;;;;4997349;28;20461;-75
2023/04/19 13:54:04;;;;;;;6.10;5.60;;;11.50;85.10;;;;;;4997160;28;20850;-75
2023/04/19 13:56:31;;;;;;;6.60;6.03;;;11.40;84.90;;;;;;4997360;28;20456;-75
2023/04/19 13:58:57;;;;;;;6.07;5.40;;;11.30;84.70;;;;;;4997290;28;20511;-75
2023/04/19 14:01:24;;;;;;;6.03;5.53;;;11.50;84.20;;;;;;4997659;28;20485;-76
2023/04/19 14:03:50;;;;;;;6.93;6.33;;;11.70;83.50;;;;;;4996921;28;20480;-77
2023/04/19 14:06:18;;;;;;;5.93;5.43;;;11.80;82.40;;;;;;4997150;28;20446;-75
2023/04/19 14:08:46;;;;;;;6.50;6.00;;;11.80;82.20;;;;;;4997054;28;20450;-76
2023/04/19 14:11:13;;;;;;;5.90;5.40;;;12.00;81.80;;;;;;4996923;28;20499;-75
2023/04/19 14:13:40;;;;;;;6.20;5.70;;;12.10;81.50;;;;;;4996767;28;20484;-76
2023/04/19 14:16:07;;;;;;;6.60;6.00;;;12.00;81.30;;;;;;4996707;28;20489;-74
2023/04/19 14:18:34;;;;;;;5.60;5.10;;;12.00;81.60;;;;;;4996782;28;20488;-75
2023/04/19 14:21:00;;;;;;;6.00;5.40;;;12.10;81.40;;;;;;4996753;28;20453;-76
2023/04/19 14:23:27;;;;;;;6.03;5.43;;;11.80;81.50;;;;;;4995931;28;21016;-75
2023/04/19 14:25:55;;;;;;;4.93;4.53;;;11.90;81.90;;;;;;4996497;28;20497;-75
2023/04/19 14:28:22;;;;;;;5.90;5.40;;;12.00;81.40;;;;;;4996666;28;20452;-75
2023/04/19 14:30:48;;;;;;;6.63;6.03;;;11.90;81.00;;;;;;4996276;28;20965;-76
2023/04/19 14:33:15;;;;;;;5.67;5.10;;;11.60;81.10;;;;;;4996577;28;20500;-75
2023/04/19 14:35:42;;;;;;;5.83;5.33;;;11.70;81.60;;;;;;4996402;28;20469;-76
2023/04/19 14:38:09;;;;;;;5.60;5.10;;;11.80;81.70;;;;;;4996473;28;20449;-75
2023/04/19 14:40:36;;;;;;;6.97;5.03;;;11.90;81.50;;;;;;4996416;28;20489;-75
2023/04/19 14:43:04;;;;;;;5.90;5.50;;;11.90;81.20;;;;;;4996503;28;20483;-76
2023/04/19 14:45:31;;;;;;;5.63;5.17;;;11.80;81.20;;;;;;4996750;28;20494;-75
2023/04/19 14:47:57;;;;;;;5.40;5.00;;;11.80;80.50;;;;;;4996274;28;20453;-75
2023/04/19 14:50:24;;;;;;;5.17;4.67;;;11.80;80.60;;;;;;4996199;28;20454;-75
2023/04/19 14:52:53;;;;;;;6.10;5.60;;;11.80;80.70;;;;;;4996162;28;20453;-76
2023/04/19 14:55:21;;;;;;;5.50;4.93;;;11.80;80.80;;;;;;4996060;28;20528;-75
2023/04/19 14:57:48;;;;;;;5.80;4.97;;;11.90;80.30;;;;;;4996132;28;20457;-76
2023/04/19 15:00:16;;;;;;;5.17;4.67;;;11.70;81.00;;;;;;4996102;28;20453;-75
2023/04/19 15:02:43;;;;;;;5.10;4.60;;;12.00;80.40;;;;;;4995998;28;20505;-76
2023/04/19 15:05:10;;;;;;;5.57;5.07;;;12.10;80.10;;;;;;4995468;28;20995;-76
2023/04/19 15:07:37;;;;;;;5.00;4.50;;;12.20;80.00;;;;;;4995599;28;20504;-75
2023/04/19 15:10:05;;;;;;;5.43;4.93;;;12.40;79.40;;;;;;4995907;28;20445;-76
2023/04/19 15:12:32;;;;;;;4.80;4.40;;;12.60;78.60;;;;;;4995901;28;20445;-75
2023/04/19 15:14:58;;;;;;;4.90;4.47;;;12.60;78.00;;;;;;4995501;28;20473;-75
2023/04/19 15:17:26;;;;;;;6.63;5.57;;;12.40;78.50;;;;;;4995767;28;20445;-75
2023/04/19 15:19:53;;;;;;;5.17;4.77;;;11.90;78.50;;;;;;4995702;28;20445;-76
2023/04/19 15:22:19;;;;;;;5.50;5.00;;;11.70;79.70;;;;;;4995713;28;20674;-74
2023/04/19 15:24:46;;;;;;;5.57;5.07;;;11.60;80.20;;;;;;4995494;28;20489;-75
2023/04/19 15:27:13;;;;;;;6.53;5.27;;;11.50;79.90;;;;;;4995571;28;20460;-76
2023/04/19 15:29:40;;;;;;;5.30;4.80;;;11.40;81.00;;;;;;4995614;28;20449;-76
2023/04/19 15:32:06;;;;;;;6.50;5.87;;;11.20;81.10;;;;;;4995520;28;20453;-76
2023/04/19 15:34:34;;;;;;;5.77;4.87;;;11.40;81.70;;;;;;4994596;28;20539;-75
2023/04/19 15:37:04;;;;;;;6.63;6.03;;;11.30;81.90;;;;;;4995360;28;20448;-76
2023/04/19 15:39:31;;;;;;;5.30;4.90;;;11.40;81.10;;;;;;4995402;28;20442;-75
2023/04/19 15:41:58;;;;;;;6.20;5.60;;;11.10;81.80;;;;;;4995271;28;20452;-75
2023/04/19 15:44:25;;;;;;;5.87;5.30;;;10.90;83.30;;;;;;4995275;28;20576;-75
2023/04/19 15:46:51;;;;;;;6.00;5.50;;;11.10;83.20;;;;;;4995170;28;20500;-75
2023/04/19 15:49:18;;;;;;;5.80;5.20;;;11.00;82.40;;;;;;4995182;28;20474;-75
2023/04/19 15:51:46;;;;;;;6.00;5.50;;;10.90;82.20;;;;;;4994796;28;20935;-76
2023/04/19 15:54:14;;;;;;;5.10;4.70;;;11.00;82.50;;;;;;4994985;28;20528;-77
2023/04/19 15:56:41;;;;;;;5.47;5.00;;;11.20;81.70;;;;;;4994900;28;20452;-75
2023/04/19 15:59:07;;;;;;;6.40;5.87;;;11.50;81.50;;;;;;4995127;28;20851;-76
2023/04/19 16:01:34;;;;;;;5.77;5.27;;;11.50;80.70;;;;;;4994979;28;20442;-75
2023/04/19 16:04:01;;;;;;;5.13;4.70;;;11.40;80.70;;;;;;4994449;28;21026;-77
2023/04/19 16:06:28;;;;;;;5.27;4.77;;;11.30;80.50;;;;;;4994828;28;20491;-77
2023/04/19 16:08:56;;;;;;;5.23;4.70;;;11.30;80.40;;;;;;4994844;28;20454;-76
2023/04/19 16:11:23;;;;;;;5.10;4.60;;;11.20;80.30;;;;;;4994757;28;20453;-75
2023/04/19 16:13:49;;;;;;;6.43;5.90;;;11.30;80.90;;;;;;4994613;28;20453;-75
2023/04/19 16:16:16;;;;;;;5.57;5.07;;;11.40;81.20;;;;;;4995292;28;20504;-75
2023/04/19 16:18:42;;;;;;;5.10;4.47;;;11.70;80.90;;;;;;4994617;28;20453;-76
2023/04/19 16:21:10;;;;;;;7.20;6.50;;;11.90;80.60;;;;;;4994618;28;20591;-76
2023/04/19 16:23:37;;;;;;;6.03;5.43;;;12.10;80.20;;;;;;4994180;28;21042;-75
2023/04/19 16:26:06;;;;;;;5.53;5.03;;;12.00;80.30;;;;;;4994417;28;20535;-77
2023/04/19 16:28:33;;;;;;;5.83;5.33;;;11.90;79.80;;;;;;4995078;28;20457;-75
2023/04/19 16:30:59;;;;;;;6.83;6.20;;;11.70;80.60;;;;;;4994471;28;20507;-74
2023/04/19 16:33:26;;;;;;;7.60;6.90;;;11.50;81.40;;;;;;4994288;28;20457;-75
2023/04/19 16:35:53;;;;;;;6.73;6.13;;;11.40;82.50;;;;;;4994325;28;20461;-75
2023/04/19 16:38:19;;;;;;;6.53;5.83;;;11.30;82.40;;;;;;4994306;28;20454;-75
2023/04/19 16:40:47;;;;;;;7.27;6.40;;;11.30;83.50;;;;;;4994464;28;20453;-76
2023/04/19 16:43:15;;;;;;;6.63;6.03;;;11.00;83.80;;;;;;4994314;28;20453;-75
2023/04/19 16:45:42;;;;;;;6.40;5.80;;;10.70;84.90;;;;;;4994111;28;20489;-76
2023/04/19 16:48:09;;;;;;;6.63;6.03;;;10.80;85.20;;;;;;4994218;28;20449;-75
2023/04/19 16:50:35;;;;;;;6.63;5.93;;;10.90;84.50;;;;;;4994089;28;20456;-75
2023/04/19 16:53:02;;;;;;;6.53;6.03;;;11.00;83.70;;;;;;4994109;28;20504;-75